Terminal Aerodrome Forecast
Issued by NWS

Home | Current Version | Previous Version | Graphics & Text | Print | Product List | Glossary On
Versions: 1 2 3 4 5 6 7 8 9 10 11 12 13 14 15 16 17 18 19 20 21 22 23 24
232
FTUS43 KBIS 220327 AAA
TAFMOT
TAF AMD
KMOT 220327Z 2203/2224 28004KT 5SM BR OVC050
     FM220500 33006KT 1 1/2SM BR VCSH OVC010
     FM220800 35007KT 3SM -RASNPL OVC008
     FM221000 35008KT 1 1/2SM -SN BR OVC003
     FM221700 36012G20KT 2SM BR VCSH OVC008
     FM221900 35012G20KT P6SM OVC015=

USA.gov is the U.S. government's official web portal to all federal, state and local government web resources and services.